createdAt,value
2023-05-07T00:02:19.463Z,99.90
2023-05-07T00:04:49.133Z,99.90
2023-05-07T00:07:17.754Z,99.90
2023-05-07T00:09:45.898Z,99.90
2023-05-07T00:12:13.891Z,99.90
2023-05-07T00:14:42.145Z,99.90
2023-05-07T00:17:10.131Z,99.90
2023-05-07T00:19:38.769Z,99.90
2023-05-07T00:22:09.079Z,99.90
2023-05-07T00:24:37.336Z,99.90
2023-05-07T00:27:05.436Z,99.90
2023-05-07T00:29:34.477Z,99.90
2023-05-07T00:32:02.756Z,99.90
2023-05-07T00:34:30.823Z,99.90
2023-05-07T00:37:01.808Z,99.90
2023-05-07T00:39:33.873Z,99.90
2023-05-07T00:42:02.088Z,99.90
2023-05-07T00:44:30.605Z,99.90
2023-05-07T00:47:00.233Z,99.90
2023-05-07T00:49:38.413Z,99.90
2023-05-07T00:52:07.966Z,99.90
2023-05-07T00:54:38.410Z,99.90
2023-05-07T00:57:07.440Z,99.90
2023-05-07T00:59:36.062Z,99.90
2023-05-07T01:02:04.972Z,99.90
2023-05-07T01:04:33.289Z,99.90
2023-05-07T01:07:03.748Z,99.90
2023-05-07T01:09:32.019Z,99.90
2023-05-07T01:12:01.879Z,99.90
2023-05-07T01:14:30.652Z,99.90
2023-05-07T01:16:59.805Z,99.90
2023-05-07T01:19:28.482Z,99.90
2023-05-07T01:22:02.843Z,99.90
2023-05-07T01:24:33.877Z,99.90
2023-05-07T01:27:02.409Z,99.90
2023-05-07T01:29:30.619Z,99.90
2023-05-07T01:32:01.003Z,99.90
2023-05-07T01:34:32.501Z,99.90
2023-05-07T01:37:01.584Z,99.90
2023-05-07T01:39:33.042Z,99.90
2023-05-07T01:42:01.677Z,99.90
2023-05-07T01:44:30.874Z,99.90
2023-05-07T01:46:59.623Z,99.90
2023-05-07T01:49:28.651Z,99.90
2023-05-07T01:51:56.938Z,99.90
2023-05-07T01:54:28.828Z,99.90
2023-05-07T01:56:59.254Z,99.90
2023-05-07T01:59:27.238Z,99.90
2023-05-07T02:01:57.077Z,99.90
2023-05-07T02:04:25.908Z,99.90
2023-05-07T02:06:55.425Z,99.90
2023-05-07T02:09:24.012Z,99.90
2023-05-07T02:11:52.382Z,99.90
2023-05-07T02:14:22.194Z,99.90
2023-05-07T02:16:50.257Z,99.90
2023-05-07T02:19:19.153Z,99.90
2023-05-07T02:21:48.041Z,99.90
2023-05-07T02:24:16.541Z,99.90
2023-05-07T02:26:44.978Z,99.90
2023-05-07T02:29:12.954Z,99.90
2023-05-07T02:31:42.925Z,99.90
2023-05-07T02:34:11.151Z,99.90
2023-05-07T02:36:39.127Z,99.90
2023-05-07T02:39:07.481Z,99.90
2023-05-07T02:41:35.592Z,99.90
2023-05-07T02:44:03.566Z,99.90
2023-05-07T02:46:33.014Z,99.90
2023-05-07T02:49:02.572Z,99.90
2023-05-07T02:51:32.629Z,99.90
2023-05-07T02:54:02.094Z,99.90
2023-05-07T02:56:30.046Z,99.90
2023-05-07T02:58:57.952Z,99.90
2023-05-07T03:01:26.253Z,99.90
2023-05-07T03:03:54.434Z,99.90
2023-05-07T03:06:23.963Z,99.90
2023-05-07T03:08:52.380Z,99.90
2023-05-07T03:11:20.956Z,99.90
2023-05-07T03:13:51.415Z,99.90
2023-05-07T03:16:19.529Z,99.90
2023-05-07T03:18:47.703Z,99.90
2023-05-07T03:21:16.409Z,99.90
2023-05-07T03:23:45.887Z,99.90
2023-05-07T03:26:14.307Z,99.90
2023-05-07T03:28:43.323Z,99.90
2023-05-07T03:31:11.539Z,99.90
2023-05-07T03:33:51.112Z,99.90
2023-05-07T03:36:20.141Z,99.90
2023-05-07T03:38:49.818Z,99.90
2023-05-07T03:41:21.297Z,99.90
2023-05-07T03:43:49.548Z,99.90
2023-05-07T03:46:17.939Z,99.90
2023-05-07T03:48:45.942Z,99.90
2023-05-07T03:51:14.504Z,99.90
2023-05-07T03:53:45.402Z,99.90
2023-05-07T03:56:14.785Z,99.90
2023-05-07T03:58:43.086Z,99.90
2023-05-07T04:01:11.018Z,99.90
2023-05-07T04:03:39.305Z,99.90
2023-05-07T04:06:10.315Z,99.90
2023-05-07T04:08:38.331Z,99.90
2023-05-07T04:11:06.444Z,99.90
2023-05-07T04:13:36.166Z,99.90
2023-05-07T04:16:05.288Z,99.90
2023-05-07T04:18:33.952Z,99.90
2023-05-07T04:21:02.249Z,99.90
2023-05-07T04:23:31.013Z,99.90
2023-05-07T04:26:01.999Z,99.90
2023-05-07T04:28:29.940Z,99.90
2023-05-07T04:31:00.553Z,99.90
2023-05-07T04:33:28.558Z,99.90
2023-05-07T04:35:56.785Z,99.90
2023-05-07T04:38:25.797Z,99.90
2023-05-07T04:40:54.016Z,99.90
2023-05-07T04:43:22.364Z,99.90
2023-05-07T04:45:52.203Z,99.90
2023-05-07T04:48:21.656Z,99.90
2023-05-07T04:50:50.278Z,99.90
2023-05-07T04:53:18.508Z,99.90
2023-05-07T04:55:47.376Z,99.90
2023-05-07T04:58:15.733Z,99.90
2023-05-07T05:00:44.797Z,99.90
2023-05-07T05:03:13.124Z,99.90
2023-05-07T05:05:42.579Z,99.90
2023-05-07T05:08:11.183Z,99.90
2023-05-07T05:10:39.500Z,99.90
2023-05-07T05:13:08.981Z,99.90
2023-05-07T05:15:37.087Z,99.90
2023-05-07T05:18:05.757Z,99.90
2023-05-07T05:20:33.671Z,99.90
2023-05-07T05:23:05.303Z,99.90
2023-05-07T05:25:33.319Z,99.90
2023-05-07T05:28:04.870Z,99.90
2023-05-07T05:30:32.858Z,99.90
2023-05-07T05:33:03.309Z,99.90
2023-05-07T05:35:31.929Z,99.90
2023-05-07T05:38:00.418Z,99.90
2023-05-07T05:40:29.979Z,99.90
2023-05-07T05:42:59.629Z,99.90
2023-05-07T05:45:28.153Z,99.90
2023-05-07T05:47:58.820Z,99.90
2023-05-07T05:50:27.128Z,99.90
2023-05-07T05:52:56.296Z,99.90
2023-05-07T05:55:25.730Z,99.90
2023-05-07T05:57:55.454Z,99.90
2023-05-07T06:00:24.801Z,99.90
2023-05-07T06:02:52.906Z,99.90
2023-05-07T06:05:21.381Z,99.90
2023-05-07T06:07:49.906Z,99.90
2023-05-07T06:10:18.494Z,99.90
2023-05-07T06:12:47.472Z,99.90
2023-05-07T06:15:16.866Z,99.90
2023-05-07T06:17:45.019Z,99.90
2023-05-07T06:20:13.546Z,99.90
2023-05-07T06:22:41.743Z,99.90
2023-05-07T06:25:10.548Z,99.90
2023-05-07T06:27:40.861Z,99.90
2023-05-07T06:30:11.734Z,99.90
2023-05-07T06:32:43.490Z,99.90
2023-05-07T06:35:11.905Z,99.90
2023-05-07T06:37:40.585Z,99.90
2023-05-07T06:40:09.948Z,99.90
2023-05-07T06:42:38.437Z,99.90
2023-05-07T06:45:09.131Z,99.90
2023-05-07T06:47:37.164Z,99.90
2023-05-07T06:50:08.749Z,99.90
2023-05-07T06:52:36.870Z,72.80
2023-05-07T06:55:05.980Z,42.50
2023-05-07T06:57:34.424Z,7.60
2023-05-07T07:00:02.417Z,7.50
2023-05-07T07:02:30.329Z,15.50
2023-05-07T07:04:58.867Z,1.00
2023-05-07T07:07:28.183Z,1.20
2023-05-07T07:09:56.482Z,7.70
2023-05-07T07:12:25.992Z,9.50
2023-05-07T07:14:55.165Z,1.00
2023-05-07T07:17:23.237Z,7.00
2023-05-07T07:19:51.394Z,1.00
2023-05-07T07:22:19.475Z,1.00
2023-05-07T07:24:48.948Z,1.00
2023-05-07T07:27:16.886Z,1.00
2023-05-07T07:29:44.933Z,1.00
2023-05-07T07:32:12.961Z,1.00
2023-05-07T07:34:41.103Z,1.00
2023-05-07T07:37:09.070Z,1.00
2023-05-07T07:39:38.545Z,1.00
2023-05-07T07:42:09.006Z,1.00
2023-05-07T07:44:36.937Z,1.00
2023-05-07T07:47:06.594Z,1.00
2023-05-07T07:49:34.994Z,1.00
2023-05-07T07:52:03.042Z,1.00
2023-05-07T07:54:31.842Z,1.00
2023-05-07T07:57:00.903Z,1.00
2023-05-07T07:59:30.339Z,1.00
2023-05-07T08:01:58.549Z,1.00
2023-05-07T08:04:26.831Z,1.00
2023-05-07T08:06:55.729Z,1.00
2023-05-07T08:09:24.193Z,1.00
2023-05-07T08:11:52.456Z,1.00
2023-05-07T08:14:20.963Z,1.00
2023-05-07T08:16:50.410Z,1.00
2023-05-07T08:19:18.696Z,1.00
2023-05-07T08:21:48.602Z,14.40
2023-05-07T08:24:17.240Z,99.90
2023-05-07T08:29:15.236Z,35.40
2023-05-07T08:31:43.931Z,39.00
2023-05-07T08:34:13.236Z,93.00
2023-05-07T08:36:43.038Z,24.00
2023-05-07T08:39:12.237Z,5.70
2023-05-07T08:41:40.599Z,16.40
2023-05-07T08:44:14.635Z,11.60
2023-05-07T08:46:44.836Z,99.90
2023-05-07T08:49:14.265Z,99.90
2023-05-07T08:51:44.396Z,99.90
2023-05-07T08:54:14.235Z,99.90
2023-05-07T08:56:43.394Z,1.00
2023-05-07T08:59:12.713Z,1.00
2023-05-07T09:01:40.861Z,1.00
2023-05-07T09:04:09.303Z,1.00
2023-05-07T09:06:43.568Z,1.00
2023-05-07T09:09:11.933Z,1.00
2023-05-07T09:11:40.386Z,1.00
2023-05-07T09:14:09.688Z,1.00
2023-05-07T09:16:38.138Z,1.00
2023-05-07T09:19:07.837Z,1.00
2023-05-07T09:21:36.160Z,1.00
2023-05-07T09:24:06.406Z,1.00
2023-05-07T09:26:35.766Z,1.00
2023-05-07T09:29:05.293Z,1.00
2023-05-07T09:31:33.779Z,1.00
2023-05-07T09:34:02.176Z,1.00
2023-05-07T09:36:30.663Z,1.00
2023-05-07T09:39:01.161Z,1.00
2023-05-07T09:41:34.190Z,1.00
2023-05-07T09:44:02.969Z,1.00
2023-05-07T09:46:33.094Z,1.00
2023-05-07T09:49:03.640Z,1.00
2023-05-07T09:51:34.386Z,1.00
2023-05-07T09:54:04.682Z,1.00
2023-05-07T09:56:35.059Z,1.00
2023-05-07T09:59:03.753Z,1.00
2023-05-07T10:01:33.930Z,1.00
2023-05-07T10:04:05.048Z,1.00
2023-05-07T10:06:36.087Z,1.00
2023-05-07T10:09:06.366Z,1.00
2023-05-07T10:11:38.052Z,1.00
2023-05-07T10:14:07.895Z,1.00
2023-05-07T10:16:38.362Z,1.00
2023-05-07T10:19:06.973Z,1.00
2023-05-07T10:21:37.920Z,1.00
2023-05-07T10:24:15.002Z,1.00
2023-05-07T10:26:49.449Z,1.00
2023-05-07T10:29:32.281Z,1.00
2023-05-07T10:32:12.638Z,90.40
2023-05-07T10:34:45.647Z,55.70
2023-05-07T10:37:16.636Z,99.90
2023-05-07T10:39:45.201Z,99.90
2023-05-07T10:42:16.929Z,99.90
2023-05-07T10:44:45.007Z,99.90
2023-05-07T10:47:15.120Z,99.90
2023-05-07T10:50:23.476Z,99.90
2023-05-07T10:53:29.812Z,99.90
2023-05-07T10:56:30.755Z,99.90
2023-05-07T10:59:37.076Z,99.90
2023-05-07T11:02:07.806Z,99.90
2023-05-07T11:04:36.578Z,99.90
2023-05-07T11:07:37.974Z,99.90
2023-05-07T11:10:08.666Z,99.90
2023-05-07T11:12:56.407Z,99.90
2023-05-07T11:15:53.158Z,99.90
2023-05-07T11:18:21.186Z,99.90
2023-05-07T11:20:57.730Z,99.90
2023-05-07T11:23:57.242Z,99.90
2023-05-07T11:26:26.220Z,99.90
2023-05-07T11:28:55.308Z,99.90
2023-05-07T11:31:27.311Z,99.90
2023-05-07T11:33:56.876Z,99.90
2023-05-07T11:36:27.228Z,99.90
2023-05-07T11:38:55.462Z,99.90
2023-05-07T11:41:23.847Z,99.90
2023-05-07T11:44:02.115Z,99.90
2023-05-07T11:46:32.831Z,99.90
2023-05-07T11:49:02.537Z,99.90
2023-05-07T11:51:30.894Z,99.90
2023-05-07T11:53:58.813Z,99.90
2023-05-07T11:56:26.867Z,99.90
2023-05-07T11:58:55.019Z,99.90
2023-05-07T12:01:23.472Z,99.90
2023-05-07T12:03:52.872Z,99.90
2023-05-07T12:06:21.419Z,99.90
2023-05-07T12:08:49.883Z,99.90
2023-05-07T12:11:23.560Z,99.90
2023-05-07T12:13:51.981Z,99.90
2023-05-07T12:16:20.773Z,99.90
2023-05-07T12:18:49.634Z,99.90
2023-05-07T12:21:19.375Z,99.90
2023-05-07T12:23:47.882Z,99.90
2023-05-07T12:26:16.095Z,99.90
2023-05-07T12:28:44.669Z,99.90
2023-05-07T12:31:12.873Z,99.90
2023-05-07T12:33:42.302Z,99.90
2023-05-07T12:36:10.906Z,99.90
2023-05-07T12:38:41.645Z,99.90
2023-05-07T12:41:11.642Z,99.90
2023-05-07T12:43:39.847Z,99.90
2023-05-07T12:46:09.827Z,99.90
2023-05-07T12:48:40.300Z,99.90
2023-05-07T12:51:11.516Z,99.90
2023-05-07T12:53:44.362Z,99.90
2023-05-07T12:56:12.672Z,99.90
2023-05-07T12:58:41.354Z,99.90
2023-05-07T13:01:10.977Z,99.90
2023-05-07T13:03:40.639Z,99.90
2023-05-07T13:06:11.712Z,99.90
2023-05-07T13:08:44.115Z,99.90
2023-05-07T13:11:13.241Z,1.00
2023-05-07T13:13:43.073Z,1.00
2023-05-07T13:16:13.001Z,1.00
2023-05-07T13:18:45.017Z,99.90
2023-05-07T13:21:14.610Z,99.90
2023-05-07T13:23:47.256Z,81.30
2023-05-07T13:26:26.357Z,1.00
2023-05-07T13:28:55.749Z,83.60
2023-05-07T13:31:24.577Z,66.80
2023-05-07T13:33:54.048Z,99.90
2023-05-07T13:36:22.238Z,99.90
2023-05-07T13:38:55.540Z,99.90
2023-05-07T13:41:25.461Z,99.90
2023-05-07T13:43:53.518Z,99.90
2023-05-07T13:46:21.547Z,99.90
2023-05-07T13:48:49.907Z,99.90
2023-05-07T13:51:18.381Z,99.90
2023-05-07T13:53:46.626Z,99.90
2023-05-07T13:56:16.393Z,99.90
2023-05-07T13:58:58.862Z,99.90
2023-05-07T14:01:28.359Z,99.90
2023-05-07T14:04:00.612Z,99.90
2023-05-07T14:06:30.840Z,99.90
2023-05-07T14:08:59.158Z,99.90
2023-05-07T14:11:32.674Z,99.90
2023-05-07T14:14:02.034Z,99.90
2023-05-07T14:16:30.387Z,99.90
2023-05-07T14:18:58.932Z,99.90
2023-05-07T14:21:27.365Z,99.90
2023-05-07T14:23:57.919Z,99.90
2023-05-07T14:26:28.242Z,99.90
2023-05-07T14:28:59.316Z,99.90
2023-05-07T14:33:58.901Z,99.90
2023-05-07T14:36:27.473Z,99.90
2023-05-07T14:38:56.244Z,99.90
2023-05-07T14:41:24.562Z,99.90
2023-05-07T14:43:52.584Z,99.90
2023-05-07T14:46:21.917Z,99.90
2023-05-07T14:48:50.058Z,99.90
2023-05-07T14:51:18.398Z,99.90
2023-05-07T14:53:47.277Z,99.90
2023-05-07T14:56:15.643Z,99.90
2023-05-07T14:58:43.961Z,99.90
2023-05-07T15:01:12.175Z,99.90
2023-05-07T15:03:41.801Z,99.90
2023-05-07T15:06:09.910Z,99.90
2023-05-07T15:08:37.937Z,99.90
2023-05-07T15:11:06.031Z,99.90
2023-05-07T15:13:34.015Z,99.90
2023-05-07T15:16:02.125Z,99.90
2023-05-07T15:18:30.108Z,99.90
2023-05-07T15:20:59.648Z,99.90
2023-05-07T15:23:27.559Z,99.90
2023-05-07T15:25:55.829Z,99.90
2023-05-07T15:28:25.496Z,99.90
2023-05-07T15:30:56.140Z,99.90
2023-05-07T15:33:24.313Z,99.90
2023-05-07T15:35:52.503Z,99.90
2023-05-07T15:38:21.803Z,99.90
2023-05-07T15:40:51.196Z,99.90
2023-05-07T15:43:19.382Z,99.90
2023-05-07T15:45:47.501Z,99.90
2023-05-07T15:48:15.436Z,99.90
2023-05-07T15:50:43.448Z,99.90
2023-05-07T15:53:13.971Z,99.90
2023-05-07T15:55:44.576Z,99.90
2023-05-07T15:58:12.845Z,99.90
2023-05-07T16:00:42.240Z,99.90
2023-05-07T16:03:12.211Z,99.90
2023-05-07T16:05:40.263Z,99.90
2023-05-07T16:08:09.616Z,99.90
2023-05-07T16:10:37.833Z,99.90
2023-05-07T16:13:08.041Z,99.90
2023-05-07T16:15:35.982Z,99.90
2023-05-07T16:18:04.253Z,99.90
2023-05-07T16:20:32.436Z,99.90
2023-05-07T16:23:00.601Z,99.90
2023-05-07T16:25:28.907Z,99.90
2023-05-07T16:28:04.817Z,99.90
2023-05-07T16:30:34.242Z,99.90
2023-05-07T16:33:03.050Z,99.90
2023-05-07T16:35:31.221Z,99.90
2023-05-07T16:38:01.376Z,99.90
2023-05-07T16:40:32.148Z,99.90
2023-05-07T16:43:00.533Z,99.90
2023-05-07T16:45:28.709Z,99.90
2023-05-07T16:47:58.728Z,99.90
2023-05-07T16:50:27.051Z,99.90
2023-05-07T16:52:55.233Z,99.90
2023-05-07T16:55:23.547Z,99.90
2023-05-07T16:57:51.737Z,99.90
2023-05-07T17:00:19.904Z,99.90
2023-05-07T17:02:49.008Z,99.90
2023-05-07T17:05:19.848Z,99.90
2023-05-07T17:07:48.031Z,99.90
2023-05-07T17:10:16.108Z,99.90
2023-05-07T17:12:44.134Z,99.90
2023-05-07T17:15:13.057Z,99.90
2023-05-07T17:17:42.208Z,99.90
2023-05-07T17:20:11.823Z,99.90
2023-05-07T17:22:42.606Z,99.90
2023-05-07T17:25:14.795Z,99.90
2023-05-07T17:27:42.924Z,99.90
2023-05-07T17:30:12.932Z,99.90
2023-05-07T17:32:41.663Z,99.90
2023-05-07T17:35:11.774Z,99.90
2023-05-07T17:37:40.151Z,99.90
2023-05-07T17:40:10.917Z,99.90
2023-05-07T17:42:39.130Z,99.90
2023-05-07T17:45:08.165Z,99.90
2023-05-07T17:47:36.241Z,99.90
2023-05-07T17:50:08.902Z,99.90
2023-05-07T17:52:37.438Z,99.90
2023-05-07T17:55:05.843Z,99.90
2023-05-07T17:57:37.033Z,99.90
2023-05-07T18:00:10.128Z,99.90
2023-05-07T18:02:39.720Z,99.90
2023-05-07T18:05:08.985Z,99.90
2023-05-07T18:07:37.579Z,99.90
2023-05-07T18:10:06.547Z,99.90
2023-05-07T18:12:36.130Z,99.90
2023-05-07T18:15:04.651Z,99.90
2023-05-07T18:17:32.896Z,99.90
2023-05-07T18:20:01.454Z,99.90
2023-05-07T18:22:29.499Z,99.90
2023-05-07T18:24:57.655Z,99.90
2023-05-07T18:27:26.143Z,99.90
2023-05-07T18:29:55.445Z,99.90
2023-05-07T18:32:24.068Z,99.90
2023-05-07T18:34:52.334Z,99.90
2023-05-07T18:37:20.585Z,99.90
2023-05-07T18:39:48.716Z,99.90
2023-05-07T18:42:16.726Z,99.90
2023-05-07T18:44:45.017Z,99.90
2023-05-07T18:47:14.617Z,99.90
2023-05-07T18:49:42.578Z,99.90
2023-05-07T18:52:10.637Z,99.90
2023-05-07T18:54:38.766Z,99.90
2023-05-07T18:57:06.983Z,99.90
2023-05-07T18:59:35.193Z,99.90
2023-05-07T19:02:03.553Z,99.90
2023-05-07T19:04:32.953Z,99.90
2023-05-07T19:07:01.149Z,99.90
2023-05-07T19:09:29.317Z,99.90
2023-05-07T19:11:57.331Z,99.90
2023-05-07T19:14:26.949Z,99.90
2023-05-07T19:16:55.506Z,99.90
2023-05-07T19:19:23.592Z,99.90
2023-05-07T19:21:53.075Z,99.90
2023-05-07T19:24:21.650Z,99.90
2023-05-07T19:26:49.580Z,99.90
2023-05-07T19:29:18.611Z,99.90
2023-05-07T19:31:47.141Z,99.90
2023-05-07T19:34:15.610Z,99.90
2023-05-07T19:36:43.607Z,99.90
2023-05-07T19:39:13.020Z,99.90
2023-05-07T19:41:41.852Z,99.90
2023-05-07T19:44:10.114Z,99.90
2023-05-07T19:46:40.656Z,99.90
2023-05-07T19:49:12.633Z,99.90
2023-05-07T19:51:41.010Z,99.90
2023-05-07T19:54:09.269Z,99.90
2023-05-07T19:56:40.221Z,99.90
2023-05-07T19:59:10.953Z,99.90
2023-05-07T20:01:40.333Z,99.90
2023-05-07T20:04:08.716Z,99.90
2023-05-07T20:06:37.256Z,99.90
2023-05-07T20:09:06.389Z,99.90
2023-05-07T20:11:34.391Z,99.90
2023-05-07T20:14:05.846Z,99.90
2023-05-07T20:16:34.593Z,99.90
2023-05-07T20:19:02.615Z,99.90
2023-05-07T20:21:31.328Z,99.90
2023-05-07T20:23:59.340Z,99.90
2023-05-07T20:26:27.951Z,99.90
2023-05-07T20:28:56.150Z,99.90
2023-05-07T20:31:25.953Z,99.90
2023-05-07T20:33:53.861Z,99.90
2023-05-07T20:36:21.808Z,99.90
2023-05-07T20:38:49.967Z,99.90
2023-05-07T20:41:18.588Z,99.90
2023-05-07T20:43:46.725Z,99.90
2023-05-07T20:46:14.651Z,99.90
2023-05-07T20:48:44.038Z,99.90
2023-05-07T20:51:13.589Z,99.90
2023-05-07T20:53:44.766Z,99.90
2023-05-07T20:56:14.116Z,99.90
2023-05-07T20:58:42.504Z,99.90
2023-05-07T21:01:10.527Z,99.90
2023-05-07T21:03:38.539Z,99.90
2023-05-07T21:06:08.328Z,99.90
2023-05-07T21:08:36.334Z,99.90
2023-05-07T21:11:06.039Z,99.90
2023-05-07T21:13:34.045Z,99.90
2023-05-07T21:16:02.318Z,99.90
2023-05-07T21:18:30.833Z,99.90
2023-05-07T21:20:58.819Z,99.90
2023-05-07T21:23:28.452Z,99.90
2023-05-07T21:25:56.828Z,99.90
2023-05-07T21:28:25.356Z,99.90
2023-05-07T21:30:54.118Z,99.90
2023-05-07T21:33:22.064Z,99.90
2023-05-07T21:35:50.097Z,99.90
2023-05-07T21:38:18.996Z,99.90
2023-05-07T21:40:48.477Z,99.90
2023-05-07T21:43:16.627Z,99.90
2023-05-07T21:45:44.597Z,99.90
2023-05-07T21:48:15.092Z,99.90
2023-05-07T21:50:43.075Z,99.90
2023-05-07T21:53:11.230Z,99.90
2023-05-07T21:55:39.263Z,99.90
2023-05-07T21:58:08.887Z,99.90
2023-05-07T22:00:36.903Z,99.90
2023-05-07T22:03:05.240Z,99.90
2023-05-07T22:05:33.416Z,99.90
2023-05-07T22:08:01.508Z,99.90
2023-05-07T22:10:29.622Z,99.90
2023-05-07T22:12:57.845Z,99.90
2023-05-07T22:15:27.139Z,99.90
2023-05-07T22:17:55.130Z,99.90
2023-05-07T22:20:23.207Z,99.90
2023-05-07T22:22:53.018Z,99.90
2023-05-07T22:25:21.965Z,99.90
2023-05-07T22:27:50.406Z,99.90
2023-05-07T22:30:18.917Z,99.90
2023-05-07T22:32:48.441Z,99.90
2023-05-07T22:35:16.698Z,99.90
2023-05-07T22:37:44.680Z,99.90
2023-05-07T22:40:13.420Z,99.90
2023-05-07T22:42:41.861Z,99.90
2023-05-07T22:45:11.077Z,99.90
2023-05-07T22:47:39.006Z,99.90
2023-05-07T22:50:09.632Z,99.90
2023-05-07T22:52:38.022Z,99.90
2023-05-07T22:55:07.263Z,99.90
2023-05-07T22:57:35.408Z,99.90
2023-05-07T23:00:04.088Z,99.90
2023-05-07T23:02:32.618Z,99.90
2023-05-07T23:05:01.722Z,99.90
2023-05-07T23:07:31.357Z,99.90
2023-05-07T23:09:59.571Z,99.90
2023-05-07T23:12:27.542Z,99.90
2023-05-07T23:14:55.596Z,99.90
2023-05-07T23:17:24.133Z,99.90
2023-05-07T23:22:21.988Z,99.90
2023-05-07T23:24:51.243Z,99.90
2023-05-07T23:27:21.557Z,99.90
2023-05-07T23:29:50.052Z,99.90
2023-05-07T23:32:18.299Z,99.90
2023-05-07T23:34:51.263Z,99.90
2023-05-07T23:37:19.610Z,99.90
2023-05-07T23:39:48.216Z,99.90
2023-05-07T23:42:17.470Z,99.90
2023-05-07T23:44:46.168Z,99.90
2023-05-07T23:47:15.442Z,99.90
2023-05-07T23:49:44.588Z,99.90
2023-05-07T23:52:12.534Z,99.90
2023-05-07T23:54:40.599Z,99.90
2023-05-07T23:57:08.563Z,99.90
2023-05-07T23:59:37.953Z,99.90
